Map

Track Data

SID SEASON NUMBER BASIN SUBBASIN NAME ISO_TIME NATURE LAT LON WMO_WIND WMO_PRES WMO_AGENCY TRACK_TYPE DIST2LAND LANDFALL IFLAG USA_AGENCY USA_ATCF_ID USA_LAT USA_LON USA_RECORD USA_STATUS USA_WIND USA_PRES USA_SSHS USA_R34_NE USA_R34_SE USA_R34_SW USA_R34_NW USA_R50_NE USA_R50_SE USA_R50_SW USA_R50_NW USA_R64_NE USA_R64_SE USA_R64_SW USA_R64_NW USA_POCI USA_ROCI USA_RMW USA_EYE TOKYO_LAT TOKYO_LON TOKYO_GRADE TOKYO_WIND TOKYO_PRES TOKYO_R50_DIR TOKYO_R50_LONG TOKYO_R50_SHORT TOKYO_R30_DIR TOKYO_R30_LONG TOKYO_R30_SHORT TOKYO_LAND CMA_LAT CMA_LON CMA_CAT CMA_WIND CMA_PRES HKO_LAT HKO_LON HKO_CAT HKO_WIND HKO_PRES NEWDELHI_LAT NEWDELHI_LON NEWDELHI_GRADE NEWDELHI_WIND NEWDELHI_PRES NEWDELHI_CI NEWDELHI_DP NEWDELHI_POCI REUNION_LAT REUNION_LON REUNION_TYPE REUNION_WIND REUNION_PRES REUNION_TNUM REUNION_CI REUNION_RMW REUNION_R34_NE REUNION_R34_SE REUNION_R34_SW REUNION_R34_NW REUNION_R50_NE REUNION_R50_SE REUNION_R50_SW REUNION_R50_NW REUNION_R64_NE REUNION_R64_SE REUNION_R64_SW REUNION_R64_NW BOM_LAT BOM_LON BOM_TYPE BOM_WIND BOM_PRES BOM_TNUM BOM_CI BOM_RMW BOM_R34_NE BOM_R34_SE BOM_R34_SW BOM_R34_NW BOM_R50_NE BOM_R50_SE BOM_R50_SW BOM_R50_NW BOM_R64_NE BOM_R64_SE BOM_R64_SW BOM_R64_NW BOM_ROCI BOM_POCI BOM_EYE BOM_POS_METHOD BOM_PRES_METHOD NADI_LAT NADI_LON NADI_CAT NADI_WIND NADI_PRES WELLINGTON_LAT WELLINGTON_LON WELLINGTON_WIND WELLINGTON_PRES DS824_LAT DS824_LON DS824_STAGE DS824_WIND DS824_PRES TD9636_LAT TD9636_LON TD9636_STAGE TD9636_WIND TD9636_PRES TD9635_LAT TD9635_LON TD9635_WIND TD9635_PRES TD9635_ROCI NEUMANN_LAT NEUMANN_LON NEUMANN_CLASS NEUMANN_WIND NEUMANN_PRES MLC_LAT MLC_LON MLC_CLASS MLC_WIND MLC_PRES USA_GUST BOM_GUST BOM_GUST_PER REUNION_GUST REUNION_GUST_PER USA_SEAHGT USA_SEARAD_NE USA_SEARAD_SE USA_SEARAD_SW USA_SEARAD_NW STORM_SPEED STORM_DIR
1967233N09145 1967 78 WP MM NOT_NAMED 1967-08-21 00:00:00 TS 9.00000 145.000 main 1256 1256 __O___________ -1 9.00000 145.000 0 1006 20 270
1967233N09145 1967 78 WP MM NOT_NAMED 1967-08-21 03:00:00 TS 9.00044 144.007 main 1276 1276 __P___________ -1 9.00044 144.007 0 1005 20 270
1967233N09145 1967 78 WP MM NOT_NAMED 1967-08-21 06:00:00 TS 9.00000 143.000 main 1300 1260 __O___________ -1 9.00000 143.000 1 29 1004 20 270
1967233N09145 1967 78 WP MM NOT_NAMED 1967-08-21 09:00:00 TS 8.99990 141.978 main 1260 1230 __P___________ -1 8.99990 141.978 1 29 1004 20 270
1967233N09145 1967 78 WP MM NOT_NAMED 1967-08-21 12:00:00 TS 9.00000 141.000 main 1227 1197 __O___________ -1 9.00000 141.000 1 29 1004 18 269
1967233N09145 1967 78 WP MM NOT_NAMED 1967-08-21 15:00:00 TS 8.96954 140.142 main 1192 1164 __P___________ -1 8.96954 140.142 1 29 1004 17 270
1967233N09145 1967 78 WP MM NOT_NAMED 1967-08-21 18:00:00 TS 9.00000 139.300 main 1161 1133 __O___________ -1 9.00000 139.300 1 29 1004 19 273
1967233N09145 1967 78 WP MM NOT_NAMED 1967-08-21 21:00:00 TS 9.08052 138.253 main 1138 1127 __P___________ -1 9.08052 138.253 1 1003 19 282
1967233N09145 1967 78 WP MM NOT_NAMED 1967-08-22 00:00:00 TS 9.40000 137.400 main 1149 1149 __O___________ -1 9.40000 137.400 0 1003 16 311
1967233N09145 1967 78 WP MM NOT_NAMED 1967-08-22 03:00:00 TS 10.1171 137.050 main 1185 1177 __P___________ -1 10.1171 137.050 0 1002 17 346
1967233N09145 1967 78 WP MM NOT_NAMED 1967-08-22 06:00:00 TS 11.0000 137.000 main 1198 1198 __O___________ -1 11.0000 137.000 0 1002 17 359
1967233N09145 1967 78 WP MM NOT_NAMED 1967-08-22 09:00:00 TS 11.7875 137.005 main 1216 1216 __P___________ -1 11.7875 137.005 0 1003 15 4
1967233N09145 1967 78 WP MM NOT_NAMED 1967-08-22 12:00:00 TS 12.5000 137.100 main 1242 1242 __O___________ -1 12.5000 137.100 0 1004 13 8
1967233N09145 1967 78 WP MM NOT_NAMED 1967-08-22 15:00:00 TS 13.0950 137.193 main 1262 1262 __P___________ -1 13.0950 137.193 0 1004 11 10
1967233N09145 1967 78 WP MM NOT_NAMED 1967-08-22 18:00:00 TS 13.6000 137.300 main 1283 1283 __O___________ -1 13.6000 137.300 0 1004 10 13
1967233N09145 1967 78 WP MM NOT_NAMED 1967-08-22 21:00:00 TS 14.0875 137.437 main 1306 1306 __P___________ -1 14.0875 137.437 0 1004 9 12
1967233N09145 1967 78 WP MM NOT_NAMED 1967-08-23 00:00:00 TS 14.5000 137.500 main 1324 1321 __O___________ -1 14.5000 137.500 0 1004 8 0
1967233N09145 1967 78 WP MM NOT_NAMED 1967-08-23 03:00:00 TS 14.8748 137.440 main 1321 1305 __P___________ -1 14.8748 137.440 0 1004 7 334
1967233N09145 1967 78 WP MM NOT_NAMED 1967-08-23 06:00:00 TS 15.1000 137.200 main 1305 1266 __O___________ -1 15.1000 137.200 0 1004 7 293
1967233N09145 1967 78 WP MM NOT_NAMED 1967-08-23 09:00:00 TS 15.1475 136.775 main 1263 1198 __P___________ -1 15.1475 136.775 0 1004 10 264
1967233N09145 1967 78 WP MM NOT_NAMED 1967-08-23 12:00:00 TS 15.0000 136.200 main 1198 1130 __O___________ -1 15.0000 136.200 0 1004 12 251
1967233N09145 1967 78 WP MM NOT_NAMED 1967-08-23 15:00:00 TS 14.7400 135.565 main 1127 1044 __P___________ -1 14.7400 135.565 0 1004 14 241
1967233N09145 1967 78 WP MM NOT_NAMED 1967-08-23 18:00:00 TS 14.3000 134.900 main 1044 979 __O___________ -1 14.3000 134.900 0 1004 16 228
1967233N09145 1967 78 WP MM NOT_NAMED 1967-08-23 21:00:00 TS 13.6570 134.330 main 968 888 __P___________ -1 13.6570 134.330 0 1004 18 222
1967233N09145 1967 78 WP MM NOT_NAMED 1967-08-24 00:00:00 TS 13.0000 133.700 main 888 804 __O___________ -1 13.0000 133.700 0 1004 18 231
1967233N09145 1967 78 WP MM NOT_NAMED 1967-08-24 03:00:00 TS 12.5359 132.902 main 791 699 __P___________ -1 12.5359 132.902 0 1004 18 244
1967233N09145 1967 78 WP MM NOT_NAMED 1967-08-24 06:00:00 TS 12.2000 132.000 main 689 __O___________ -1 12.2000 132.000 0 1004 19 249

Digital Typhoon Data and Search

About IBTrACS Database

This database is a web-friendly format of International Best Track Archive for Climate Stewardship (IBTrACS), a global best track data archive curated by NOAA dating back to 1842.

Updated: 2021-12-03